Time;durP1;ratioP1;P1;durP2;ratioP2;P2;SDS_P1;SDS_P2;PMS_P1;PMS_P2;Temp;Humidity;BMP_temperature;BMP_pressure;BME280_temperature;BME280_humidity;BME280_pressure;Samples;Min_cycle;Max_cycle;Signal;HPM_P1;HPM_P2
2022/07/22 00:00:28;;;;;;;6.32;3.92;;;;;;;15.56;100.00;102126.22;5025194;28;20039;-57
2022/07/22 00:02:53;;;;;;;4.97;3.40;;;;;;;15.54;100.00;102123.53;5015908;28;20076;-57
2022/07/22 00:05:18;;;;;;;5.85;3.58;;;;;;;15.53;100.00;102126.09;5015689;28;20049;-58
2022/07/22 00:07:44;;;;;;;7.47;4.28;;;;;;;15.51;100.00;102120.84;5017027;28;20018;-57
2022/07/22 00:10:10;;;;;;;10.02;3.80;;;;;;;15.47;100.00;102116.38;5019960;28;20052;-58
2022/07/22 00:12:37;;;;;;;7.22;4.13;;;;;;;15.45;100.00;102118.03;5018856;28;20021;-58
2022/07/22 00:15:04;;;;;;;7.45;4.30;;;;;;;15.43;100.00;102111.88;5022361;28;20468;-58
2022/07/22 00:17:29;;;;;;;6.57;3.80;;;;;;;15.40;100.00;102117.88;5027734;28;20080;-58
2022/07/22 00:19:55;;;;;;;7.22;4.47;;;;;;;15.43;100.00;102122.34;5027594;28;20025;-58
2022/07/22 00:22:20;;;;;;;7.40;4.30;;;;;;;15.43;100.00;102117.09;5027508;28;20470;-58
2022/07/22 00:24:45;;;;;;;7.45;4.03;;;;;;;15.45;100.00;102112.81;5028451;28;20401;-58
2022/07/22 00:27:11;;;;;;;9.00;4.53;;;;;;;15.44;100.00;102121.47;5026766;28;20351;-57
2022/07/22 00:29:36;;;;;;;12.05;5.32;;;;;;;15.44;100.00;102116.25;5023904;28;20799;-57
2022/07/22 00:32:02;;;;;;;9.02;4.70;;;;;;;15.45;100.00;102118.03;5019589;28;20029;-57
2022/07/22 00:34:27;;;;;;;9.43;4.80;;;;;;;15.46;100.00;102119.81;5026377;28;20029;-57
2022/07/22 00:36:52;;;;;;;8.13;4.43;;;;;;;15.46;100.00;102119.81;5030451;28;20381;-57
2022/07/22 00:39:18;;;;;;;5.40;4.40;;;;;;;15.43;100.00;102120.63;5027933;28;20036;-58
2022/07/22 00:41:43;;;;;;;7.65;4.85;;;;;;;15.41;100.00;102117.06;5027787;28;20499;-57
2022/07/22 00:44:10;;;;;;;9.13;5.03;;;;;;;15.39;100.00;102113.50;5020939;28;20451;-57
2022/07/22 00:46:36;;;;;;;11.32;5.63;;;;;;;15.38;100.00;102116.94;5028809;28;20033;-57
2022/07/22 00:49:04;;;;;;;7.03;5.13;;;;;;;15.36;100.00;102111.66;5023889;28;20468;-57
2022/07/22 00:51:31;;;;;;;6.25;4.28;;;;;;;15.36;100.00;102118.63;5026190;28;20021;-58
2022/07/22 00:53:57;;;;;;;10.70;4.95;;;;;;;15.38;100.00;102111.72;5026600;28;20021;-58
2022/07/22 00:56:24;;;;;;;8.02;4.57;;;;;;;15.41;100.00;102110.94;5018673;28;20045;-57
2022/07/22 00:58:52;;;;;;;10.10;4.88;;;;;;;15.40;100.00;102109.19;5027592;28;20037;-58
2022/07/22 01:01:18;;;;;;;6.68;4.13;;;;;;;15.38;100.00;102100.41;5025467;28;20060;-58
2022/07/22 01:03:43;;;;;;;10.88;4.90;;;;;;;15.35;100.00;102107.31;5023967;28;20568;-57
2022/07/22 01:06:09;;;;;;;9.80;5.30;;;;;;;15.34;100.00;102110.72;5028328;28;20025;-58
2022/07/22 01:08:34;;;;;;;6.85;4.88;;;;;;;15.32;100.00;102104.59;5028720;28;20040;-58
2022/07/22 01:11:11;;;;;;;12.30;5.75;;;;;;;15.30;100.00;102101.03;5029310;28;20497;-56
2022/07/22 01:13:36;;;;;;;7.43;5.78;;;;;;;15.28;100.00;102094.88;5026931;28;20052;-57
2022/07/22 01:16:03;;;;;;;11.57;5.70;;;;;;;15.27;100.00;102097.44;5028525;28;20025;-57
2022/07/22 01:18:29;;;;;;;9.88;5.97;;;;;;;15.25;100.00;102100.00;5026471;28;20109;-58
2022/07/22 01:20:54;;;;;;;9.00;5.70;;;;;;;15.23;100.00;102101.69;5026380;28;20104;-60
2022/07/22 01:23:20;;;;;;;11.45;5.65;;;;;;;15.19;100.00;102094.56;5026330;28;20422;-60
2022/07/22 01:25:45;;;;;;;13.95;6.53;;;;;;;15.15;100.00;102088.34;5026386;28;20525;-60
2022/07/22 01:28:10;;;;;;;7.07;5.50;;;;;;;15.12;100.00;102089.16;5028819;28;20560;-61
2022/07/22 01:30:36;;;;;;;9.32;5.47;;;;;;;15.08;100.00;102091.59;5027757;28;20028;-58
2022/07/22 01:33:01;;;;;;;8.18;5.50;;;;;;;15.05;100.00;102096.72;5023812;28;20061;-60
2022/07/22 01:35:26;;;;;;;9.43;5.72;;;;;;;14.97;100.00;102091.25;5023628;28;20469;-60
2022/07/22 01:37:51;;;;;;;8.40;5.63;;;;;;;14.92;100.00;102090.19;5026070;28;20105;-56
2022/07/22 01:40:17;;;;;;;12.65;6.07;;;;;;;14.87;100.00;102082.22;5023526;28;20680;-60
2022/07/22 01:42:42;;;;;;;8.82;5.75;;;;;;;14.82;100.00;102084.66;5019399;28;20021;-60
2022/07/22 01:45:08;;;;;;;7.88;5.90;;;;;;;14.77;100.00;102086.19;5026500;28;20373;-60
2022/07/22 01:47:33;;;;;;;10.52;5.95;;;;;;;14.73;100.00;102092.16;5020848;28;20018;-60
2022/07/22 01:49:59;;;;;;;11.50;5.90;;;;;;;14.69;100.00;102099.00;5028078;28;20024;-58
2022/07/22 01:52:24;;;;;;;8.63;6.18;;;;;;;14.65;100.00;102094.50;5027771;28;20071;-59
2022/07/22 01:54:49;;;;;;;7.95;6.10;;;;;;;14.63;100.00;102094.44;5028197;28;20029;-59
2022/07/22 01:57:15;;;;;;;11.73;6.32;;;;;;;14.63;100.00;102101.38;5022917;28;20405;-57
2022/07/22 01:59:40;;;;;;;11.68;6.32;;;;;;;14.62;100.00;102095.28;5018962;28;20022;-59
2022/07/22 02:02:05;;;;;;;7.75;6.20;;;;;;;14.65;100.00;102097.09;5026758;28;20060;-56
2022/07/22 02:04:30;;;;;;;10.90;6.65;;;;;;;14.65;100.00;102098.00;5021578;28;20034;-57
2022/07/22 02:06:56;;;;;;;10.70;6.68;;;;;;;14.65;100.00;102098.00;5022155;28;20014;-58
2022/07/22 02:09:21;;;;;;;11.27;6.43;;;;;;;14.67;100.00;102094.53;5017184;28;20025;-59
2022/07/22 02:11:47;;;;;;;9.35;6.45;;;;;;;14.67;100.00;102085.00;5025452;28;20408;-59
2022/07/22 02:14:12;;;;;;;12.07;6.80;;;;;;;14.67;100.00;102092.84;5020778;28;20036;-57
2022/07/22 02:16:37;;;;;;;11.73;6.93;;;;;;;14.70;100.00;102089.41;5026581;28;20521;-57
2022/07/22 02:19:03;;;;;;;12.57;7.43;;;;;;;14.72;100.00;102085.16;5024716;28;20713;-57
2022/07/22 02:21:28;;;;;;;12.75;6.53;;;;;;;14.76;100.00;102089.66;5027882;28;20029;-59
2022/07/22 02:23:53;;;;;;;11.43;6.32;;;;;;;14.79;100.00;102089.75;5022991;28;20059;-58
2022/07/22 02:26:19;;;;;;;11.85;7.28;;;;;;;14.83;100.00;102086.47;5018640;28;20328;-59
2022/07/22 02:28:44;;;;;;;11.55;6.88;;;;;;;14.86;100.00;102091.78;5025803;28;20469;-59
2022/07/22 02:31:09;;;;;;;8.90;6.80;;;;;;;14.86;100.00;102088.25;5018135;28;20120;-60
2022/07/22 02:33:35;;;;;;;10.93;6.38;;;;;;;14.83;100.00;102083.84;5019204;28;20021;-55
2022/07/22 02:36:00;;;;;;;12.90;7.20;;;;;;;14.83;100.00;102088.16;5021741;28;20025;-59
2022/07/22 02:38:25;;;;;;;10.02;7.07;;;;;;;14.81;100.00;102085.50;5024089;28;20143;-59
2022/07/22 02:40:51;;;;;;;9.43;6.47;;;;;;;14.80;100.00;102088.94;5027864;28;20456;-57
2022/07/22 02:43:16;;;;;;;10.10;6.82;;;;;;;14.80;100.00;102086.31;5020069;28;20109;-60
2022/07/22 02:45:41;;;;;;;10.10;6.93;;;;;;;14.82;100.00;102079.44;5020463;28;20104;-57
2022/07/22 02:48:06;;;;;;;10.45;6.97;;;;;;;14.85;100.00;102079.56;5023940;28;20020;-60
2022/07/22 02:50:36;;;;;;;11.75;7.20;;;;;;;14.88;100.00;102084.88;5027157;28;20100;-59
2022/07/22 02:53:01;;;;;;;12.20;6.80;;;;;;;14.86;100.00;102086.56;5026547;28;20029;-58
2022/07/22 02:55:27;;;;;;;11.35;6.43;;;;;;;14.86;100.00;102076.13;5027681;28;20090;-60
2022/07/22 02:57:52;;;;;;;13.88;7.78;;;;;;;14.87;100.00;102077.00;5019491;28;20204;-59
2022/07/22 03:00:17;;;;;;;11.85;7.55;;;;;;;14.88;100.00;102077.06;5022995;28;20025;-58
2022/07/22 03:02:43;;;;;;;12.00;7.07;;;;;;;14.89;100.00;102071.00;5025371;28;20104;-59
2022/07/22 03:05:09;;;;;;;9.43;7.10;;;;;;;14.87;100.00;102070.06;5022438;28;20478;-58
2022/07/22 03:07:34;;;;;;;15.90;7.15;;;;;;;14.85;100.00;102071.75;5025661;28;20018;-59
2022/07/22 03:10:00;;;;;;;12.27;7.65;;;;;;;14.82;100.00;102071.63;5023556;28;20022;-58
2022/07/22 03:12:26;;;;;;;15.45;7.43;;;;;;;14.77;100.00;102061.00;5027573;28;20138;-59
2022/07/22 03:14:51;;;;;;;10.77;7.05;;;;;;;14.76;100.00;102061.84;5022522;28;20029;-59
2022/07/22 03:17:16;;;;;;;12.40;6.97;;;;;;;14.75;100.00;102062.66;5020441;28;20207;-58
2022/07/22 03:19:42;;;;;;;13.07;8.65;;;;;;;14.77;100.00;102057.50;5026992;28;20025;-58
2022/07/22 03:22:07;;;;;;;13.50;7.68;;;;;;;14.78;100.00;102061.91;5026759;28;20028;-58
2022/07/22 03:24:33;;;;;;;10.30;7.97;;;;;;;14.79;100.00;102061.06;5024536;28;20033;-59
2022/07/22 03:26:58;;;;;;;13.15;8.05;;;;;;;14.81;100.00;102061.09;5025167;28;20025;-59
2022/07/22 03:29:23;;;;;;;12.50;8.32;;;;;;;14.80;100.00;102060.22;5015736;28;20491;-59
2022/07/22 03:31:49;;;;;;;12.15;7.97;;;;;;;14.79;100.00;102066.25;5026670;28;20082;-58
2022/07/22 03:34:14;;;;;;;14.23;7.93;;;;;;;14.78;100.00;102067.13;5026005;28;20025;-58
2022/07/22 03:36:39;;;;;;;12.35;7.30;;;;;;;14.81;100.00;102066.31;5026002;28;20033;-59
2022/07/22 03:39:05;;;;;;;10.50;7.90;;;;;;;14.81;100.00;102064.63;5025557;28;20064;-58
2022/07/22 03:41:30;;;;;;;12.05;7.78;;;;;;;14.82;100.00;102058.56;5022668;28;20060;-57
2022/07/22 03:43:56;;;;;;;13.25;7.93;;;;;;;14.80;100.00;102055.00;5025345;28;20108;-56
2022/07/22 03:46:23;;;;;;;12.00;8.45;;;;;;;14.81;100.00;102067.25;5015799;28;20508;-58
2022/07/22 03:48:48;;;;;;;10.45;7.57;;;;;;;14.81;100.00;102061.09;5023793;28;20025;-58
2022/07/22 03:51:13;;;;;;;11.18;7.40;;;;;;;14.81;100.00;102067.25;5023283;28;20359;-58
2022/07/22 03:53:39;;;;;;;9.25;7.18;;;;;;;14.80;100.00;102070.66;5028714;28;20023;-58
2022/07/22 03:56:05;;;;;;;11.85;7.80;;;;;;;14.79;100.00;102074.09;5024901;28;20021;-59
2022/07/22 03:58:30;;;;;;;14.13;8.15;;;;;;;14.80;100.00;102073.28;5027132;28;20488;-57
2022/07/22 04:00:55;;;;;;;13.07;8.00;;;;;;;14.81;100.00;102075.06;5025942;28;20485;-58
2022/07/22 04:03:21;;;;;;;11.25;8.55;;;;;;;14.82;100.00;102074.22;5023941;28;20541;-57
2022/07/22 04:05:46;;;;;;;12.35;8.20;;;;;;;14.80;100.00;102073.28;5026159;28;20025;-58
2022/07/22 04:08:12;;;;;;;12.57;8.68;;;;;;;14.80;100.00;102075.88;5029311;28;20026;-59
2022/07/22 04:10:38;;;;;;;15.20;8.85;;;;;;;14.81;100.00;102076.75;5027085;28;20021;-59
2022/07/22 04:13:03;;;;;;;14.75;8.68;;;;;;;14.82;100.00;102084.66;5028317;28;20503;-60
2022/07/22 04:15:29;;;;;;;19.38;9.38;;;;;;;14.82;100.00;102073.38;5023938;28;20373;-60
2022/07/22 04:17:54;;;;;;;12.00;8.82;;;;;;;14.84;100.00;102080.38;5027461;28;20032;-59
2022/07/22 04:20:19;;;;;;;15.27;8.75;;;;;;;14.86;100.00;102081.34;5029022;28;20036;-59
2022/07/22 04:22:45;;;;;;;15.77;8.80;;;;;;;14.86;100.00;102086.56;5028092;28;20116;-58
2022/07/22 04:25:10;;;;;;;12.30;9.20;;;;;;;14.88;100.00;102082.28;5028593;28;20053;-58
2022/07/22 04:27:35;;;;;;;10.45;8.20;;;;;;;14.88;100.00;102079.66;5025279;28;20096;-58
2022/07/22 04:30:01;;;;;;;18.02;8.75;;;;;;;14.89;100.00;102076.22;5027108;28;20038;-59
2022/07/22 04:32:26;;;;;;;12.98;8.52;;;;;;;14.93;100.00;102078.94;5028161;28;20063;-59
2022/07/22 04:34:52;;;;;;;12.88;8.70;;;;;;;14.94;100.00;102083.31;5029715;28;20432;-59
2022/07/22 04:37:17;;;;;;;13.25;8.60;;;;;;;14.95;100.00;102078.16;5029686;28;20414;-58
2022/07/22 04:39:42;;;;;;;13.07;8.48;;;;;;;14.96;100.00;102069.50;5029596;28;20492;-59
2022/07/22 04:42:08;;;;;;;12.25;7.63;;;;;;;14.99;100.00;102071.31;5027493;28;20397;-60
2022/07/22 04:44:33;;;;;;;11.35;8.13;;;;;;;15.00;100.00;102067.88;5023012;28;20080;-60
2022/07/22 04:46:58;;;;;;;11.65;7.63;;;;;;;15.06;100.00;102068.06;5022639;28;20466;-59
2022/07/22 04:49:25;;;;;;;19.02;8.88;;;;;;;15.09;100.00;102073.38;5027270;28;20017;-60
2022/07/22 04:51:51;;;;;;;16.10;8.18;;;;;;;15.11;100.00;102076.94;5029468;28;20025;-57
2022/07/22 04:54:16;;;;;;;12.75;8.20;;;;;;;15.15;100.00;102071.84;5028110;28;20477;-57
2022/07/22 04:56:42;;;;;;;14.52;8.52;;;;;;;15.18;100.00;102069.31;5024972;28;20037;-58
2022/07/22 04:59:07;;;;;;;13.30;8.57;;;;;;;15.19;100.00;102063.25;5023851;28;20040;-58
2022/07/22 05:01:32;;;;;;;13.65;8.68;;;;;;;15.22;100.00;102060.72;5024308;28;20021;-58
2022/07/22 05:03:57;;;;;;;13.57;8.25;;;;;;;15.24;100.00;102056.44;5016966;28;20040;-57
2022/07/22 05:06:23;;;;;;;16.25;8.02;;;;;;;15.27;100.00;102067.00;5021859;28;20034;-58
2022/07/22 05:08:48;;;;;;;13.80;7.65;;;;;;;15.30;100.00;102067.09;5029142;28;20032;-58
2022/07/22 05:11:13;;;;;;;13.48;8.27;;;;;;;15.32;100.00;102068.03;5023273;28;20021;-56
2022/07/22 05:13:39;;;;;;;16.08;8.57;;;;;;;15.35;100.00;102070.75;5027257;28;20017;-59
2022/07/22 05:16:05;;;;;;;9.98;7.75;;;;;;;15.39;100.00;102053.44;5015512;28;20048;-58
2022/07/22 05:18:30;;;;;;;22.17;8.40;;;;;;;15.44;100.00;102056.19;5010347;28;20022;-59
2022/07/22 05:20:55;;;;;;;13.85;8.80;;;;;;;15.52;100.00;102061.66;5030043;28;20029;-59
2022/07/22 05:23:20;;;;;;;10.68;8.23;;;;;;;15.55;100.00;102061.75;5030492;28;20025;-59
2022/07/22 05:25:46;;;;;;;12.95;9.50;;;;;;;15.56;100.00;102058.31;5029094;28;20480;-57
2022/07/22 05:28:11;;;;;;;13.25;8.95;;;;;;;15.59;100.00;102053.16;5030025;28;20029;-58
2022/07/22 05:30:37;;;;;;;11.10;8.50;;;;;;;15.66;100.00;102059.47;5030347;28;20022;-59
2022/07/22 05:33:02;;;;;;;12.85;8.40;;;;;;;15.71;100.00;102060.47;5029901;28;20021;-58
2022/07/22 05:35:27;;;;;;;12.32;8.02;;;;;;;15.76;100.00;102061.50;5029870;28;20033;-59
2022/07/22 05:37:53;;;;;;;9.90;8.27;;;;;;;15.81;100.00;102057.28;5028876;28;20032;-58
2022/07/22 05:40:18;;;;;;;10.65;8.15;;;;;;;15.83;100.00;102060.84;5029624;28;20037;-58
2022/07/22 05:42:43;;;;;;;14.95;8.43;;;;;;;15.86;100.00;102067.91;5029393;28;20043;-58
2022/07/22 05:45:09;;;;;;;13.48;6.90;;;;;;;15.93;100.00;102063.75;5029492;28;20048;-59
2022/07/22 05:47:34;;;;;;;8.57;6.68;;;;;;;15.97;100.00;102068.22;5016165;28;20053;-58
2022/07/22 05:50:00;;;;;;;9.52;7.22;;;;;;;16.01;100.00;102064.88;5008656;28;20034;-57
2022/07/22 05:52:25;;;;;;;14.05;8.20;;;;;;;16.07;100.00;102067.69;5014063;28;20033;-59
2022/07/22 05:54:50;;;;;;;11.05;8.32;;;;;;;16.12;100.00;102072.16;5013996;28;20187;-58
2022/07/22 05:57:15;;;;;;;12.30;8.32;;;;;;;16.18;100.00;102067.97;5018769;28;20029;-58
2022/07/22 05:59:41;;;;;;;13.35;8.90;;;;;;;16.22;100.00;102068.06;5016692;28;20492;-59
2022/07/22 06:02:07;;;;;;;13.18;7.93;;;;;;;16.25;100.00;102068.13;5027750;28;20053;-58
2022/07/22 06:04:33;;;;;;;14.30;8.75;;;;;;;16.25;100.00;102066.41;5023963;28;20087;-58
2022/07/22 06:06:58;;;;;;;15.90;9.38;;;;;;;16.28;100.00;102065.63;5017891;28;20018;-58
2022/07/22 06:09:23;;;;;;;14.00;9.10;;;;;;;16.33;100.00;102064.03;5008699;28;20088;-56
2022/07/22 06:11:48;;;;;;;12.32;9.13;;;;;;;16.41;100.00;102065.13;5008855;28;20026;-57
2022/07/22 06:14:14;;;;;;;13.40;8.55;;;;;;;16.44;100.00;102073.03;5011478;28;20072;-58
2022/07/22 06:16:39;;;;;;;12.35;8.32;;;;;;;16.49;100.00;102070.56;5017327;28;20560;-58
2022/07/22 06:19:04;;;;;;;10.90;7.28;;;;;;;16.58;100.00;102069.91;5014560;28;20033;-59
2022/07/22 06:21:30;;;;;;;11.38;7.00;;;;;;;16.64;100.00;102074.44;5029039;28;20025;-58
2022/07/22 06:23:55;;;;;;;11.80;6.40;;;;;;;16.71;100.00;102081.59;5018385;28;20018;-58
2022/07/22 06:26:20;;;;;;;8.07;5.80;;;;;;;16.76;100.00;102080.00;5022553;28;20536;-58
2022/07/22 06:28:46;;;;;;;8.93;5.68;;;;;;;16.80;100.00;102080.97;5022700;28;20033;-58
2022/07/22 06:31:11;;;;;;;9.82;5.85;;;;;;;16.83;100.00;102074.91;5007067;28;20414;-58
2022/07/22 06:33:37;;;;;;;12.27;5.88;;;;;;;16.88;100.00;102062.81;5008108;28;20030;-59
2022/07/22 06:36:03;;;;;;;10.35;6.05;;;;;;;16.92;100.00;102064.66;5008934;28;20385;-58
2022/07/22 06:38:28;;;;;;;8.60;5.80;;;;;;;17.05;100.00;102058.88;5017752;28;20523;-58
2022/07/22 06:40:54;;;;;;;10.50;5.38;;;;;;;17.29;100.00;102056.84;5007128;28;20046;-58
2022/07/22 06:43:19;;;;;;;10.93;6.13;;;;;;;17.56;100.00;102062.69;5008032;28;20018;-58
2022/07/22 06:45:44;;;;;;;6.38;4.53;;;;;;;17.88;100.00;102066.00;5007008;28;20264;-58
2022/07/22 06:48:10;;;;;;;6.10;3.78;;;;;;;18.17;100.00;102061.38;5019287;28;20045;-58
2022/07/22 06:50:35;;;;;;;3.90;2.70;;;;;;;18.46;97.54;102059.28;5015849;28;20221;-58
2022/07/22 06:53:00;;;;;;;4.97;3.85;;;;;;;18.68;91.87;102054.41;5009790;28;20081;-59
2022/07/22 06:55:26;;;;;;;6.00;3.92;;;;;;;18.87;93.29;102052.09;5007924;28;20517;-58
2022/07/22 06:57:51;;;;;;;5.93;4.80;;;;;;;19.03;93.74;102054.97;5006604;28;20075;-59
2022/07/22 07:00:16;;;;;;;6.00;3.72;;;;;;;19.07;91.49;102062.03;5012271;28;20044;-57
2022/07/22 07:02:42;;;;;;;6.40;3.97;;;;;;;19.09;93.37;102062.94;5016480;28;20025;-59
2022/07/22 07:05:07;;;;;;;7.38;3.50;;;;;;;19.15;92.22;102060.47;5008331;28;20017;-59
2022/07/22 07:07:33;;;;;;;6.60;4.00;;;;;;;19.25;92.98;102068.50;5009567;28;20484;-59
2022/07/22 07:09:58;;;;;;;3.75;3.22;;;;;;;19.34;89.75;102059.88;5022287;28;20136;-59
2022/07/22 07:12:23;;;;;;;6.18;3.80;;;;;;;19.31;85.43;102053.69;5008002;28;20092;-58
2022/07/22 07:14:49;;;;;;;5.22;3.58;;;;;;;19.36;89.13;102053.75;5007920;28;20037;-59
2022/07/22 07:17:15;;;;;;;4.07;2.28;;;;;;;19.34;84.12;102050.22;5007330;28;20037;-57
2022/07/22 07:19:40;;;;;;;1.67;1.30;;;;;;;19.33;84.09;102048.47;5017219;28;20044;-57
2022/07/22 07:22:06;;;;;;;3.58;2.17;;;;;;;19.42;82.64;102051.22;5027266;28;20029;-57
2022/07/22 07:24:31;;;;;;;5.63;2.30;;;;;;;19.55;84.57;102043.50;5027454;28;20022;-59
2022/07/22 07:26:56;;;;;;;2.92;2.10;;;;;;;19.74;83.98;102043.72;5026929;28;20021;-58
2022/07/22 07:29:22;;;;;;;3.58;1.80;;;;;;;19.78;82.61;102045.53;5027025;28;20021;-59
2022/07/22 07:31:48;;;;;;;3.83;1.50;;;;;;;19.63;79.72;102047.13;5015964;28;20026;-59
2022/07/22 07:34:13;;;;;;;3.80;1.55;;;;;;;19.35;77.09;102041.50;5025350;28;20748;-59
2022/07/22 07:36:38;;;;;;;5.43;2.28;;;;;;;19.16;80.94;102051.72;5028039;28;20072;-58
2022/07/22 07:39:04;;;;;;;3.50;2.70;;;;;;;19.03;85.01;102047.09;5026597;28;20037;-59
2022/07/22 07:41:29;;;;;;;6.22;2.53;;;;;;;18.95;84.96;102042.63;5027352;28;20041;-59
2022/07/22 07:43:54;;;;;;;5.43;2.40;;;;;;;18.89;84.20;102054.78;5025745;28;20211;-58
2022/07/22 07:46:20;;;;;;;4.70;2.08;;;;;;;18.74;79.71;102037.00;5025896;28;20637;-58
2022/07/22 07:48:46;;;;;;;4.65;1.60;;;;;;;18.72;79.97;102035.25;5025617;28;20029;-59
2022/07/22 07:51:12;;;;;;;2.42;1.63;;;;;;;18.99;84.78;102034.78;5021538;28;20109;-59
2022/07/22 07:53:38;;;;;;;3.65;1.70;;;;;;;19.35;84.66;102043.22;5015346;28;20036;-58
2022/07/22 07:56:03;;;;;;;1.92;1.08;;;;;;;19.61;77.77;102048.84;5025771;28;20416;-58
2022/07/22 07:58:28;;;;;;;3.50;1.42;;;;;;;19.68;77.40;102052.41;5025770;28;20025;-57
2022/07/22 08:00:54;;;;;;;3.83;1.00;;;;;;;19.76;71.36;102047.28;5027082;28;20402;-58
2022/07/22 08:03:19;;;;;;;2.38;1.00;;;;;;;19.88;72.64;102057.06;5027043;28;20021;-59
2022/07/22 08:05:44;;;;;;;2.33;1.23;;;;;;;19.94;74.05;102045.72;5026956;28;20072;-58
2022/07/22 08:08:10;;;;;;;3.33;1.25;;;;;;;20.11;76.99;102048.59;5027303;28;20092;-59
2022/07/22 08:10:35;;;;;;;3.28;1.13;;;;;;;20.24;74.60;102046.97;5027395;28;20479;-57
2022/07/22 08:13:00;;;;;;;2.97;1.35;;;;;;;20.26;69.32;102047.88;5027009;28;20021;-59
2022/07/22 08:15:28;;;;;;;4.38;1.63;;;;;;;20.04;70.20;102035.34;5026884;28;20033;-59
2022/07/22 08:17:54;;;;;;;2.85;1.05;;;;;;;20.09;69.52;102039.81;5017993;28;20040;-59
2022/07/22 08:20:19;;;;;;;4.30;1.70;;;;;;;20.09;72.61;102045.97;5022448;28;20091;-59
2022/07/22 08:22:44;;;;;;;5.55;1.70;;;;;;;20.37;73.08;102035.72;5027062;28;20029;-59
2022/07/22 08:25:10;;;;;;;3.83;1.50;;;;;;;20.66;68.57;102041.22;5027111;28;20025;-59
2022/07/22 08:27:35;;;;;;;2.17;1.10;;;;;;;20.68;64.98;102043.03;5026863;28;20056;-58
2022/07/22 08:30:04;;;;;;;2.13;0.90;;;;;;;20.51;65.67;102042.84;5027117;28;20274;-59
2022/07/22 08:32:29;;;;;;;3.45;0.93;;;;;;;20.44;67.08;102036.66;5026342;28;20112;-60
2022/07/22 08:34:55;;;;;;;3.00;1.20;;;;;;;20.35;69.61;102040.06;5027063;28;20108;-60
2022/07/22 08:37:20;;;;;;;2.40;1.25;;;;;;;20.26;71.41;102055.75;5028285;28;20033;-58
2022/07/22 08:39:45;;;;;;;2.03;1.05;;;;;;;20.09;71.68;102043.34;5031143;28;20032;-59
2022/07/22 08:42:11;;;;;;;2.83;1.20;;;;;;;20.01;71.42;102034.41;5030490;28;20077;-59
2022/07/22 08:44:36;;;;;;;3.42;1.60;;;;;;;19.98;71.68;102037.91;5030185;28;20056;-60
2022/07/22 08:47:02;;;;;;;3.15;1.50;;;;;;;19.98;70.26;102037.03;5030678;28;20068;-60
2022/07/22 08:49:27;;;;;;;3.20;1.33;;;;;;;19.99;69.93;102030.88;5030451;28;20030;-58
2022/07/22 08:51:53;;;;;;;2.00;1.40;;;;;;;19.96;72.32;102025.59;5030736;28;20036;-59
2022/07/22 08:54:19;;;;;;;2.90;1.60;;;;;;;19.97;71.41;102024.75;5030147;28;20350;-59
2022/07/22 08:56:47;;;;;;;6.15;1.83;;;;;;;20.02;74.16;102030.94;5030332;28;20072;-60
2022/07/22 08:59:13;;;;;;;3.30;2.28;;;;;;;20.28;75.32;102025.09;5030564;28;20031;-59
2022/07/22 09:02:05;;;;;;;4.88;2.42;;;;;;;20.50;73.04;102028.81;5030108;28;20021;-59
2022/07/22 09:04:31;;;;;;;3.55;2.20;;;;;;;20.59;72.11;102030.66;5030245;28;20029;-59
2022/07/22 09:06:57;;;;;;;6.97;2.25;;;;;;;20.64;69.99;102030.69;5030490;28;20071;-60
2022/07/22 09:09:31;;;;;;;4.32;2.40;;;;;;;20.77;67.76;102034.31;5029970;28;20474;-59
2022/07/22 09:12:08;;;;;;;3.70;2.00;;;;;;;20.82;67.17;102027.31;5030247;28;20484;-59
2022/07/22 09:14:47;;;;;;;3.70;2.38;;;;;;;21.19;69.04;102025.88;5029445;28;20072;-60
2022/07/22 09:17:29;;;;;;;3.58;2.38;;;;;;;21.52;67.53;102024.28;5014019;28;20022;-59
2022/07/22 09:19:57;;;;;;;3.97;1.65;;;;;;;21.93;68.14;102021.81;5022027;28;20508;-59
2022/07/22 09:22:33;;;;;;;3.78;2.08;;;;;;;22.26;67.84;102017.50;5029313;28;20026;-59
2022/07/22 09:25:16;;;;;;;3.40;2.28;;;;;;;22.21;63.18;102019.25;5029754;28;20033;-59
2022/07/22 09:27:41;;;;;;;4.25;2.60;;;;;;;22.02;64.83;102016.56;5015659;28;20538;-59
2022/07/22 09:30:12;;;;;;;5.32;2.67;;;;;;;21.82;67.30;102014.75;5018703;28;20113;-59
2022/07/22 09:32:42;;;;;;;6.55;3.20;;;;;;;21.64;67.43;102010.25;5028221;28;20025;-59
2022/07/22 09:35:10;;;;;;;5.03;3.17;;;;;;;21.47;68.01;102010.19;5030022;28;20147;-59
2022/07/22 09:37:36;;;;;;;6.20;3.30;;;;;;;21.35;69.23;102009.25;5029809;28;20370;-58
2022/07/22 09:40:14;;;;;;;5.50;3.05;;;;;;;21.23;68.43;102003.91;5029512;28;20021;-58
2022/07/22 09:42:45;;;;;;;3.15;2.30;;;;;;;21.13;67.78;102005.63;5029088;28;20507;-59
2022/07/22 09:45:10;;;;;;;;;;;;;;;21.04;68.80;102003.81;5029930;28;20033;-59
2022/07/22 09:47:35;;;;;;;3.63;2.90;;;;;;;20.99;69.35;102000.28;5029420;28;19916;-59
2022/07/22 09:50:01;;;;;;;6.15;2.70;;;;;;;20.86;68.60;101996.63;5029352;28;20036;-59
2022/07/22 09:52:26;;;;;;;3.95;3.00;;;;;;;20.81;69.97;101999.25;5029012;28;20556;-59
2022/07/22 09:54:52;;;;;;;5.13;3.10;;;;;;;20.77;70.94;101997.44;5029165;28;20036;-59
2022/07/22 09:57:19;;;;;;;4.13;2.75;;;;;;;20.75;70.72;101993.91;5029443;28;20375;-58
2022/07/22 09:59:44;;;;;;;4.45;2.47;;;;;;;20.71;72.54;102002.66;5029651;28;20021;-59
2022/07/22 10:02:11;;;;;;;5.13;2.90;;;;;;;20.62;70.11;102003.47;5029655;28;20517;-59
2022/07/22 10:04:40;;;;;;;3.72;3.00;;;;;;;20.54;70.13;102006.03;5028526;28;20091;-60
2022/07/22 10:07:05;;;;;;;4.15;2.60;;;;;;;20.50;70.46;102001.63;5021032;28;20018;-60
2022/07/22 10:09:31;;;;;;;3.50;2.90;;;;;;;20.47;69.76;101994.56;5023186;28;20496;-59
2022/07/22 10:11:56;;;;;;;4.68;2.35;;;;;;;20.50;68.56;102009.50;5028819;28;20021;-59
2022/07/22 10:14:21;;;;;;;4.32;3.22;;;;;;;20.55;68.23;102012.16;5028640;28;20029;-59
2022/07/22 10:16:47;;;;;;;7.43;3.33;;;;;;;20.68;68.70;102010.53;5028251;28;20160;-59
2022/07/22 10:19:14;;;;;;;6.38;3.63;;;;;;;20.69;67.13;102005.28;5014770;28;20033;-59
2022/07/22 10:21:41;;;;;;;4.65;3.35;;;;;;;20.67;66.18;102001.75;5028463;28;20057;-58
2022/07/22 10:24:07;;;;;;;3.97;3.53;;;;;;;20.70;65.72;102000.91;5028399;28;20017;-60
2022/07/22 10:26:50;;;;;;;4.72;2.92;;;;;;;21.09;68.26;101996.81;5028097;28;20099;-59
2022/07/22 10:29:44;;;;;;;4.88;3.75;;;;;;;21.56;67.68;101999.69;5028561;28;20029;-59
2022/07/22 10:32:29;;;;;;;4.85;2.72;;;;;;;21.86;63.13;102005.09;5025175;28;20504;-58
2022/07/22 10:34:57;;;;;;;4.55;2.40;;;;;;;22.30;63.82;102008.72;5017216;28;20069;-59
2022/07/22 10:37:36;;;;;;;4.05;2.30;;;;;;;22.71;63.21;101995.56;5012053;28;20219;-59
2022/07/22 10:40:40;;;;;;;3.38;2.45;;;;;;;23.06;61.67;101995.50;5008406;28;20254;-58
2022/07/22 10:43:09;;;;;;;5.38;2.58;;;;;;;23.18;58.70;102003.41;5029328;28;20092;-59
2022/07/22 10:46:06;;;;;;;3.38;2.35;;;;;;;23.13;61.27;102007.81;5015778;28;20453;-58
2022/07/22 10:48:37;;;;;;;4.28;2.33;;;;;;;23.36;62.16;101997.19;5020703;28;20510;-59
2022/07/22 10:51:08;;;;;;;4.50;2.65;;;;;;;23.44;60.39;101994.53;5022293;28;20029;-59
2022/07/22 10:53:56;;;;;;;3.80;1.92;;;;;;;23.51;61.84;101990.97;5021559;28;20033;-58
2022/07/22 10:56:35;;;;;;;3.13;2.10;;;;;;;23.38;60.25;101994.53;5008580;28;20099;-57
2022/07/22 10:59:16;;;;;;;3.10;2.13;;;;;;;23.09;61.49;101992.84;5007140;28;20029;-58
2022/07/22 11:01:52;;;;;;;3.25;2.42;;;;;;;22.75;60.37;101986.75;5009964;28;20112;-58
2022/07/22 11:04:21;;;;;;;4.05;2.40;;;;;;;22.43;60.48;101980.56;5007218;28;20038;-58
2022/07/22 11:06:48;;;;;;;3.90;2.53;;;;;;;22.27;63.72;101977.03;5011281;28;20080;-58
2022/07/22 11:09:14;;;;;;;4.93;3.30;;;;;;;22.19;61.75;101984.94;5007543;28;20386;-58
2022/07/22 11:11:46;;;;;;;5.65;2.90;;;;;;;22.00;61.67;101973.47;5009539;28;20022;-58
2022/07/22 11:14:13;;;;;;;3.97;2.47;;;;;;;22.03;63.09;101983.16;5007177;28;20029;-58